Time;durP1;ratioP1;P1;durP2;ratioP2;P2;SDS_P1;SDS_P2;PMS_P1;PMS_P2;Temp;Humidity;BMP_temperature;BMP_pressure;BME280_temperature;BME280_humidity;BME280_pressure;Samples;Min_cycle;Max_cycle;Signal;HPM_P1;HPM_P2
2023/10/14 00:02:01;;;;;;;1999.90;999.90;;;13.20;99.90;;;;;;5059831;28;20073;-76
2023/10/14 00:04:30;;;;;;;1999.90;999.90;;;13.10;99.90;;;;;;5043772;28;20037;-75
2023/10/14 00:06:57;;;;;;;1999.90;999.90;;;13.10;99.90;;;;;;5054897;28;20053;-75
2023/10/14 00:09:24;;;;;;;1999.90;999.90;;;13.00;99.90;;;;;;5017830;28;20025;-74
2023/10/14 00:11:55;;;;;;;1999.90;999.90;;;12.80;99.90;;;;;;5041888;28;20133;-74
2023/10/14 00:14:23;;;;;;;1999.90;999.90;;;12.80;99.90;;;;;;5055772;28;20075;-74
2023/10/14 00:16:49;;;;;;;1999.90;999.90;;;12.80;99.90;;;;;;5037076;28;20554;-76
2023/10/14 00:19:18;;;;;;;1999.90;999.90;;;12.70;99.90;;;;;;5035646;28;20044;-75
2023/10/14 00:21:45;;;;;;;1999.90;999.90;;;12.70;99.90;;;;;;5030356;28;20080;-75
2023/10/14 00:24:16;;;;;;;1999.90;999.90;;;12.60;99.90;;;;;;5048929;28;20052;-75
2023/10/14 00:26:47;;;;;;;1999.90;999.90;;;12.50;99.90;;;;;;5038158;28;20050;-74
2023/10/14 00:31:45;;;;;;;1999.90;999.90;;;12.30;99.90;;;;;;5055168;28;20048;-75
2023/10/14 00:34:11;;;;;;;1999.90;999.90;;;12.30;99.90;;;;;;5043171;28;20055;-75
2023/10/14 00:36:36;;;;;;;1999.90;999.90;;;12.20;99.90;;;;;;5055097;28;20048;-75
2023/10/14 00:39:13;;;;;;;1999.90;999.90;;;12.10;99.90;;;;;;5055479;28;20106;-75
2023/10/14 00:41:43;;;;;;;1999.90;999.90;;;12.10;99.90;;;;;;5046043;28;20045;-75
2023/10/14 00:44:10;;;;;;;1999.90;999.90;;;12.00;99.90;;;;;;5030425;28;20124;-75
2023/10/14 00:46:48;;;;;;;1999.90;999.90;;;12.00;99.90;;;;;;5034994;28;20418;-74
2023/10/14 00:49:14;;;;;;;1999.90;999.90;;;12.00;99.90;;;;;;5043967;28;20083;-74
2023/10/14 00:51:45;;;;;;;1999.90;999.90;;;11.90;99.90;;;;;;5038342;28;20484;-74
2023/10/14 00:54:11;;;;;;;1999.90;999.90;;;11.80;99.90;;;;;;5055709;28;20033;-75
2023/10/14 00:56:42;;;;;;;1999.90;999.90;;;11.70;99.90;;;;;;5048026;28;20040;-74
2023/10/14 00:59:09;;;;;;;1999.90;999.90;;;11.70;99.90;;;;;;5041357;28;20045;-74
2023/10/14 01:04:20;;;;;;;1999.90;999.90;;;11.60;99.90;;;;;;5045070;28;20049;-74
2023/10/14 01:12:16;;;;;;;1999.90;999.90;;;11.30;99.90;;;;;;5054879;28;20049;-74
2023/10/14 01:14:46;;;;;;;1999.90;999.90;;;11.30;99.90;;;;;;5042068;28;20037;-74
2023/10/14 01:17:25;;;;;;;1999.90;999.90;;;11.20;99.90;;;;;;5056903;28;20468;-73
2023/10/14 01:19:51;;;;;;;1999.90;999.90;;;11.10;99.90;;;;;;5052155;28;20045;-74
2023/10/14 01:22:17;;;;;;;1999.90;999.90;;;11.00;99.90;;;;;;5030864;28;20166;-74
2023/10/14 01:24:43;;;;;;;1999.90;999.90;;;11.00;99.90;;;;;;5045945;28;20505;-74
2023/10/14 01:27:10;;;;;;;1999.90;999.90;;;10.90;99.90;;;;;;5021092;28;20042;-74
2023/10/14 01:29:40;;;;;;;1999.90;999.90;;;10.80;99.90;;;;;;5042745;28;20108;-74
2023/10/14 01:32:25;;;;;;;1999.90;999.90;;;10.80;99.90;;;;;;5035705;28;20048;-74
2023/10/14 01:34:59;;;;;;;;;;;10.80;99.90;;;;;;5025564;28;20393;-74
2023/10/14 01:37:33;;;;;;;1999.90;999.90;;;10.80;99.90;;;;;;5038493;28;20246;-74
2023/10/14 01:40:16;;;;;;;1999.90;999.90;;;10.70;99.90;;;;;;5036771;28;20075;-74
2023/10/14 01:42:42;;;;;;;1999.90;999.90;;;10.70;99.90;;;;;;5037800;28;20096;-73
2023/10/14 01:45:08;;;;;;;1999.90;999.90;;;10.70;99.90;;;;;;5038025;28;20588;-74
2023/10/14 01:47:39;;;;;;;1999.90;999.90;;;10.60;99.90;;;;;;5039532;28;20040;-73
2023/10/14 01:50:12;;;;;;;1999.90;999.90;;;10.50;99.90;;;;;;5026894;28;20045;-74
2023/10/14 01:52:38;;;;;;;1999.90;999.90;;;10.50;99.90;;;;;;5046332;28;20084;-74
2023/10/14 01:55:05;;;;;;;1999.90;999.90;;;10.40;99.90;;;;;;5044397;28;20047;-74
2023/10/14 01:57:31;;;;;;;1999.90;999.90;;;10.40;99.90;;;;;;5029730;28;20072;-74
2023/10/14 01:59:57;;;;;;;1999.90;999.90;;;10.40;99.90;;;;;;5045685;28;20052;-73
2023/10/14 02:02:22;;;;;;;1999.90;999.90;;;10.20;99.90;;;;;;5046623;28;20525;-73
2023/10/14 02:04:56;;;;;;;1999.90;999.90;;;10.20;99.90;;;;;;5042507;28;20489;-73
2023/10/14 02:07:23;;;;;;;1999.90;999.90;;;10.20;99.90;;;;;;5054177;28;21718;-74
2023/10/14 02:09:48;;;;;;;1999.90;999.90;;;10.20;99.90;;;;;;5015971;28;20048;-73
2023/10/14 02:12:15;;;;;;;1999.90;999.90;;;10.10;99.90;;;;;;5021872;28;20037;-74
2023/10/14 02:14:54;;;;;;;1999.90;999.90;;;10.00;99.90;;;;;;5042541;28;20049;-73
2023/10/14 02:17:20;;;;;;;1999.90;999.90;;;10.00;99.90;;;;;;5055035;28;20053;-74
2023/10/14 02:19:49;;;;;;;1999.90;999.90;;;10.00;99.90;;;;;;5047691;28;20061;-73
2023/10/14 02:22:21;;;;;;;1999.90;999.90;;;10.00;99.90;;;;;;5035064;28;20053;-73
2023/10/14 02:24:48;;;;;;;1999.90;999.90;;;9.90;99.90;;;;;;5039190;28;20045;-73
2023/10/14 02:27:14;;;;;;;1999.90;999.90;;;10.00;99.90;;;;;;5039789;28;20041;-73
2023/10/14 02:29:45;;;;;;;1999.90;999.90;;;9.90;99.90;;;;;;5036422;28;20513;-74
2023/10/14 02:32:12;;;;;;;1999.90;999.90;;;9.90;99.90;;;;;;5060282;28;20037;-73
2023/10/14 02:34:44;;;;;;;1999.90;999.90;;;9.90;99.90;;;;;;5040424;28;20041;-73
2023/10/14 02:37:13;;;;;;;1999.90;999.90;;;9.90;99.90;;;;;;5044098;28;20048;-73
2023/10/14 02:39:39;;;;;;;1999.90;999.90;;;9.80;99.90;;;;;;5041888;28;20049;-73
2023/10/14 02:44:32;;;;;;;1999.90;999.90;;;9.90;99.90;;;;;;5060436;28;20048;-73
2023/10/14 02:47:05;;;;;;;1999.90;999.90;;;9.90;99.90;;;;;;5044755;28;20056;-73
2023/10/14 02:49:39;;;;;;;1999.90;999.90;;;10.00;99.90;;;;;;5046684;28;20033;-73
2023/10/14 02:52:29;;;;;;;;;;;10.00;99.90;;;;;;5038858;28;20044;-73
2023/10/14 02:54:55;;;;;;;1999.90;999.90;;;10.00;99.90;;;;;;5051187;28;19921;-73
2023/10/14 02:59:52;;;;;;;1999.90;999.90;;;10.00;99.90;;;;;;5042815;28;20094;-73
2023/10/14 03:04:54;;;;;;;1999.90;999.90;;;10.00;99.90;;;;;;5036818;28;20417;-73
2023/10/14 03:07:29;;;;;;;1999.90;999.90;;;10.00;99.90;;;;;;5037286;28;20382;-73
2023/10/14 03:12:40;;;;;;;1999.90;999.90;;;10.00;99.90;;;;;;5045052;28;20044;-73
2023/10/14 03:15:19;;;;;;;1999.90;999.90;;;10.00;99.90;;;;;;5028245;28;20037;-73
2023/10/14 03:17:56;;;;;;;1999.90;999.90;;;10.00;99.90;;;;;;5056193;28;20067;-73
2023/10/14 03:25:50;;;;;;;1999.90;999.90;;;9.90;99.90;;;;;;5032028;28;20652;-73
2023/10/14 03:28:19;;;;;;;1999.90;999.90;;;9.90;99.90;;;;;;5048324;28;20037;-73
2023/10/14 03:30:58;;;;;;;1999.90;999.90;;;9.80;99.90;;;;;;5040610;28;20069;-73
2023/10/14 03:33:27;;;;;;;1999.90;999.90;;;9.80;99.90;;;;;;5035009;28;20064;-73
2023/10/14 03:36:00;;;;;;;1999.90;999.90;;;9.80;99.90;;;;;;5041822;28;20490;-73
2023/10/14 03:38:38;;;;;;;1999.90;999.90;;;9.80;99.90;;;;;;5043013;28;20057;-73
2023/10/14 03:41:18;;;;;;;1999.90;999.90;;;9.80;99.90;;;;;;5041282;28;20115;-72
2023/10/14 03:49:20;;;;;;;1999.90;999.90;;;9.70;99.90;;;;;;5058712;28;20041;-73
2023/10/14 03:51:49;;;;;;;1999.90;999.90;;;9.70;99.90;;;;;;5046927;28;20430;-72
2023/10/14 03:54:23;;;;;;;1999.90;999.90;;;9.70;99.90;;;;;;5055952;28;20052;-72
2023/10/14 03:56:50;;;;;;;1999.90;999.90;;;9.70;99.90;;;;;;5056635;28;20051;-73
2023/10/14 03:59:25;;;;;;;1999.90;999.90;;;9.80;99.90;;;;;;5047509;28;20052;-73
2023/10/14 04:01:58;;;;;;;1999.90;999.90;;;9.80;99.90;;;;;;5036982;28;20179;-72
2023/10/14 04:04:24;;;;;;;1999.90;999.90;;;9.80;99.90;;;;;;5035884;28;20034;-73
2023/10/14 04:09:39;;;;;;;1999.90;999.90;;;9.70;99.90;;;;;;5054478;28;20053;-72
2023/10/14 04:12:09;;;;;;;1999.90;999.90;;;9.70;99.90;;;;;;5048163;28;20095;-72
2023/10/14 04:14:41;;;;;;;1999.90;999.90;;;9.60;99.90;;;;;;5042733;28;20045;-73
2023/10/14 04:19:47;;;;;;;1999.90;999.90;;;9.60;99.90;;;;;;5052884;28;20049;-73
2023/10/14 04:22:32;;;;;;;1999.90;999.90;;;9.60;99.90;;;;;;5051471;28;20054;-73
2023/10/14 04:25:19;;;;;;;1999.90;999.90;;;9.60;99.90;;;;;;5035222;28;20037;-73
2023/10/14 04:30:32;;;;;;;1999.90;999.90;;;9.60;99.90;;;;;;5057075;28;20048;-73
2023/10/14 04:35:31;;;;;;;1999.90;999.90;;;9.70;99.90;;;;;;5040815;28;20077;-73
2023/10/14 04:37:58;;;;;;;1999.90;999.90;;;9.70;99.90;;;;;;5046920;28;20045;-73
2023/10/14 04:51:15;;;;;;;1999.90;999.90;;;9.60;99.90;;;;;;5052573;28;20046;-73
2023/10/14 04:53:49;;;;;;;1999.90;999.90;;;9.60;99.90;;;;;;5045693;28;20043;-73
2023/10/14 04:56:22;;;;;;;;;;;9.50;99.90;;;;;;5050289;28;20554;-73
2023/10/14 04:58:52;;;;;;;1999.90;999.90;;;9.40;99.90;;;;;;5039322;28;20285;-73
2023/10/14 05:01:18;;;;;;;1999.90;999.90;;;9.40;99.90;;;;;;5048015;28;20037;-72
2023/10/14 05:03:47;;;;;;;1999.90;999.90;;;9.40;99.90;;;;;;5049601;28;20037;-73
2023/10/14 05:08:45;;;;;;;1999.90;999.90;;;9.40;99.90;;;;;;5053929;28;20107;-72
2023/10/14 05:11:18;;;;;;;1999.90;999.90;;;9.40;99.90;;;;;;5045326;28;20036;-73
2023/10/14 05:16:29;;;;;;;1999.90;999.90;;;9.30;99.90;;;;;;5047513;28;20079;-73
2023/10/14 05:19:07;;;;;;;1999.90;999.90;;;9.30;99.90;;;;;;5050842;28;20079;-73
2023/10/14 05:21:36;;;;;;;1999.90;999.90;;;9.30;99.90;;;;;;5035220;28;20049;-72
2023/10/14 05:24:08;;;;;;;1999.90;999.90;;;9.20;99.90;;;;;;5047139;28;20124;-72
2023/10/14 05:26:44;;;;;;;1999.90;999.90;;;9.20;99.90;;;;;;5038753;28;20052;-73
2023/10/14 05:29:19;;;;;;;1999.90;999.90;;;9.10;99.90;;;;;;5046437;28;20041;-72
2023/10/14 05:31:46;;;;;;;1999.90;999.90;;;9.10;99.90;;;;;;5048896;28;20439;-72
2023/10/14 05:34:13;;;;;;;1999.90;999.90;;;9.10;99.90;;;;;;5037645;28;20139;-72
2023/10/14 05:36:39;;;;;;;1999.90;999.90;;;9.00;99.90;;;;;;5045562;28;20118;-72
2023/10/14 05:39:06;;;;;;;1999.90;999.90;;;9.00;99.90;;;;;;5042767;28;20072;-73
2023/10/14 05:41:33;;;;;;;1999.90;999.90;;;9.00;99.90;;;;;;5040470;28;20069;-72
2023/10/14 05:43:59;;;;;;;1999.90;999.90;;;8.90;99.90;;;;;;5044518;28;20049;-73
2023/10/14 05:46:25;;;;;;;1999.90;999.90;;;8.90;99.90;;;;;;5047820;28;20060;-72
2023/10/14 05:48:53;;;;;;;1999.90;999.90;;;8.90;99.90;;;;;;5046934;28;20066;-73
2023/10/14 05:51:19;;;;;;;1999.90;999.90;;;8.90;99.90;;;;;;5043810;28;20087;-73
2023/10/14 05:53:46;;;;;;;1999.90;999.90;;;8.90;99.90;;;;;;5024081;28;20047;-73
2023/10/14 05:56:14;;;;;;;1999.90;999.90;;;8.90;99.90;;;;;;5045072;28;20071;-72
2023/10/14 05:58:45;;;;;;;1999.90;999.90;;;8.90;99.90;;;;;;5049114;28;20077;-73
2023/10/14 06:01:13;;;;;;;1999.90;999.90;;;8.80;99.90;;;;;;5033666;28;20036;-72
2023/10/14 06:03:42;;;;;;;1999.90;999.90;;;8.80;99.90;;;;;;5047082;28;20127;-73
2023/10/14 06:06:14;;;;;;;1999.90;999.90;;;8.70;99.90;;;;;;5044094;28;20170;-72
2023/10/14 06:08:41;;;;;;;1999.90;999.90;;;8.70;99.90;;;;;;5040391;28;20033;-72
2023/10/14 06:11:07;;;;;;;1999.90;999.90;;;8.70;99.90;;;;;;5043720;28;20528;-73
2023/10/14 06:13:34;;;;;;;1999.90;999.90;;;8.70;99.90;;;;;;5043528;28;20570;-73
2023/10/14 06:16:00;;;;;;;1999.90;999.90;;;8.70;99.90;;;;;;5057635;28;20098;-73
2023/10/14 06:18:29;;;;;;;1999.90;999.90;;;8.80;99.90;;;;;;5036147;28;20056;-73
2023/10/14 06:20:59;;;;;;;1999.90;999.90;;;8.90;99.90;;;;;;5041855;28;20040;-73
2023/10/14 06:23:28;;;;;;;1999.90;999.90;;;8.90;99.90;;;;;;5039739;28;20515;-73
2023/10/14 06:25:55;;;;;;;1999.90;999.90;;;8.90;99.90;;;;;;5048993;28;20048;-72
2023/10/14 06:28:20;;;;;;;1999.90;999.90;;;8.90;99.90;;;;;;5039810;28;20120;-73
2023/10/14 06:30:46;;;;;;;1999.90;999.90;;;9.00;99.90;;;;;;5042121;28;20174;-72
2023/10/14 06:33:11;;;;;;;1999.90;999.90;;;9.00;99.90;;;;;;5056211;28;20124;-72
2023/10/14 06:35:42;;;;;;;1999.90;999.90;;;9.00;99.90;;;;;;5043257;28;20036;-72
2023/10/14 06:38:09;;;;;;;1999.90;999.90;;;9.10;99.90;;;;;;5057013;28;20044;-72
2023/10/14 06:40:36;;;;;;;1999.90;999.90;;;9.10;99.90;;;;;;5044987;28;20044;-72
2023/10/14 06:43:06;;;;;;;1999.90;999.90;;;9.20;99.90;;;;;;5039168;28;20041;-72
2023/10/14 06:45:34;;;;;;;1999.90;999.90;;;9.30;99.90;;;;;;5045343;28;20078;-72
2023/10/14 06:48:03;;;;;;;1999.90;999.90;;;9.40;99.90;;;;;;5033313;28;20094;-72
2023/10/14 06:50:30;;;;;;;1999.90;999.90;;;9.40;99.90;;;;;;5061797;28;20045;-73
2023/10/14 06:52:59;;;;;;;1999.90;999.90;;;9.60;99.90;;;;;;5028616;28;20549;-72
2023/10/14 06:55:36;;;;;;;1999.90;999.90;;;9.70;99.90;;;;;;5042146;28;20075;-73
2023/10/14 06:58:05;;;;;;;1999.90;999.90;;;9.90;99.90;;;;;;5039520;28;20132;-72
2023/10/14 07:00:32;;;;;;;1999.90;999.90;;;10.00;99.90;;;;;;5051329;28;20128;-72
2023/10/14 07:03:00;;;;;;;1999.90;999.90;;;10.10;99.90;;;;;;5048939;28;20043;-72
2023/10/14 07:05:29;;;;;;;1999.90;999.90;;;10.10;99.90;;;;;;5044766;28;20055;-72
2023/10/14 07:07:58;;;;;;;1999.90;999.90;;;10.30;99.90;;;;;;5048804;28;20055;-73
2023/10/14 07:10:32;;;;;;;1999.90;999.90;;;10.30;99.90;;;;;;5039097;28;20111;-73
2023/10/14 07:12:58;;;;;;;1999.90;999.90;;;10.40;99.90;;;;;;5039428;28;20083;-72
2023/10/14 07:15:30;;;;;;;1999.90;999.90;;;10.50;99.90;;;;;;5046484;28;20049;-73
2023/10/14 07:17:57;;;;;;;1999.90;999.90;;;10.50;99.90;;;;;;5047031;28;20063;-72
2023/10/14 07:20:22;;;;;;;1999.90;999.90;;;10.60;99.90;;;;;;5058292;28;20417;-72
2023/10/14 07:22:49;;;;;;;1999.90;999.90;;;10.60;99.90;;;;;;5033882;28;20036;-73
2023/10/14 07:25:16;;;;;;;1999.90;999.90;;;10.60;99.90;;;;;;5044945;28;20397;-72
2023/10/14 07:27:41;;;;;;;1999.90;999.90;;;10.70;99.90;;;;;;5042066;28;20077;-73
2023/10/14 07:30:14;;;;;;;1999.90;999.90;;;10.80;99.90;;;;;;5031647;28;20547;-72
2023/10/14 07:32:47;;;;;;;1999.90;999.90;;;11.00;99.90;;;;;;5060690;28;20048;-71
2023/10/14 07:35:14;;;;;;;1999.90;999.90;;;11.30;99.90;;;;;;5041626;28;20405;-72
2023/10/14 07:37:45;;;;;;;1999.90;999.90;;;11.60;99.90;;;;;;5045996;28;20056;-72
2023/10/14 07:40:23;;;;;;;1999.90;999.90;;;11.60;99.90;;;;;;5031817;28;20053;-73
2023/10/14 07:43:10;;;;;;;1999.90;999.90;;;11.50;99.90;;;;;;5043695;28;20053;-74
2023/10/14 07:45:42;;;;;;;1999.90;999.90;;;11.50;99.90;;;;;;5028359;28;20089;-73
2023/10/14 07:48:08;;;;;;;1999.90;999.90;;;11.50;99.90;;;;;;5048060;28;20045;-73
2023/10/14 07:50:48;;;;;;;1999.90;999.90;;;11.60;99.90;;;;;;5048336;28;20120;-72
2023/10/14 07:53:22;;;;;;;1999.90;999.90;;;11.70;99.90;;;;;;5045055;28;20402;-72
2023/10/14 07:55:49;;;;;;;1999.90;999.90;;;11.80;99.90;;;;;;5037687;28;20036;-73
2023/10/14 07:58:16;;;;;;;1999.90;999.90;;;11.80;99.90;;;;;;5044641;28;20052;-72
2023/10/14 08:00:50;;;;;;;1999.90;999.90;;;11.70;99.90;;;;;;5038889;28;20048;-72
2023/10/14 08:03:18;;;;;;;1999.90;999.90;;;11.60;99.90;;;;;;5039027;28;20056;-72
2023/10/14 08:05:51;;;;;;;1999.90;999.90;;;11.60;99.90;;;;;;5049503;28;20037;-72
2023/10/14 08:08:17;;;;;;;1999.90;999.90;;;11.60;99.90;;;;;;5038501;28;20401;-73
2023/10/14 08:10:45;;;;;;;1999.90;999.90;;;11.70;99.90;;;;;;5060132;28;20083;-72
2023/10/14 08:13:12;;;;;;;1999.90;999.90;;;11.80;99.90;;;;;;5049088;28;20512;-72
2023/10/14 08:15:37;;;;;;;1999.90;999.90;;;11.90;99.90;;;;;;5031970;28;20048;-74
2023/10/14 08:18:07;;;;;;;1999.90;999.90;;;12.40;99.90;;;;;;5032877;28;20037;-73
2023/10/14 08:20:34;;;;;;;1999.90;999.90;;;13.00;99.90;;;;;;5048458;28;20083;-72
2023/10/14 08:23:00;;;;;;;1999.90;999.90;;;13.60;99.90;;;;;;5049502;28;20041;-72
2023/10/14 08:25:26;;;;;;;1999.90;999.90;;;14.10;99.90;;;;;;5036186;28;20378;-73
2023/10/14 08:27:53;;;;;;;1999.90;999.90;;;14.40;99.90;;;;;;5047981;28;20128;-73
2023/10/14 08:30:24;;;;;;;1999.90;999.90;;;14.70;99.90;;;;;;5058941;28;20436;-73
2023/10/14 08:32:50;;;;;;;1999.90;999.90;;;14.80;99.90;;;;;;5064637;28;20041;-73
2023/10/14 08:35:16;;;;;;;1999.90;999.90;;;15.00;99.90;;;;;;5049539;28;20417;-72
2023/10/14 08:37:51;;;;;;;1999.90;999.90;;;15.10;99.90;;;;;;5049332;28;20055;-73
2023/10/14 08:40:21;;;;;;;1999.90;999.90;;;15.20;99.90;;;;;;5036642;28;20506;-73
2023/10/14 08:42:49;;;;;;;1999.90;999.90;;;15.30;99.90;;;;;;5028485;28;20049;-73
2023/10/14 08:45:20;;;;;;;1999.90;999.90;;;15.40;99.90;;;;;;5045457;28;20086;-73
2023/10/14 08:47:50;;;;;;;1999.90;999.90;;;15.50;99.90;;;;;;5032145;28;20100;-73
2023/10/14 08:50:21;;;;;;;1999.90;999.90;;;15.50;99.90;;;;;;5047905;28;20041;-74
2023/10/14 08:52:49;;;;;;;1999.90;999.90;;;15.30;99.90;;;;;;5047121;28;20067;-73
2023/10/14 08:55:16;;;;;;;1999.90;999.90;;;15.20;99.90;;;;;;5048644;28;20136;-73
2023/10/14 08:57:45;;;;;;;1999.90;999.90;;;15.20;99.90;;;;;;5031490;28;20053;-73
2023/10/14 09:00:19;;;;;;;1999.90;999.90;;;14.90;99.90;;;;;;5048110;28;20401;-73
2023/10/14 09:02:53;;;;;;;1999.90;999.90;;;14.90;99.90;;;;;;5034583;28;20501;-73
2023/10/14 09:05:21;;;;;;;1999.90;999.90;;;14.90;99.90;;;;;;5040986;28;20041;-73
2023/10/14 09:07:51;;;;;;;1999.90;999.90;;;14.90;99.90;;;;;;5030960;28;20572;-72
2023/10/14 09:10:21;;;;;;;1999.90;999.90;;;15.10;99.90;;;;;;5041178;28;20080;-73
2023/10/14 09:13:03;;;;;;;1999.90;999.90;;;15.20;99.90;;;;;;5030549;28;20068;-72
2023/10/14 09:15:32;;;;;;;1999.90;999.90;;;15.10;99.90;;;;;;5048241;28;20563;-73
2023/10/14 09:17:58;;;;;;;1999.90;999.90;;;15.00;99.90;;;;;;5047917;28;20052;-73
2023/10/14 09:20:37;;;;;;;1999.90;999.90;;;14.80;99.90;;;;;;5031380;28;20079;-73
2023/10/14 09:23:33;;;;;;;1999.90;999.90;;;14.70;99.90;;;;;;5042609;28;20076;-73
2023/10/14 09:26:00;;;;;;;1999.90;999.90;;;14.60;99.90;;;;;;5034016;28;20049;-73
2023/10/14 09:28:34;;;;;;;1999.90;999.90;;;14.70;99.90;;;;;;5046483;28;20083;-73
2023/10/14 09:31:02;;;;;;;1999.90;999.90;;;14.60;99.90;;;;;;5048318;28;20043;-73
2023/10/14 09:33:31;;;;;;;1999.90;999.90;;;14.60;99.90;;;;;;5048097;28;20036;-74
2023/10/14 09:36:11;;;;;;;1999.90;999.90;;;14.60;99.90;;;;;;5045972;28;20077;-72
2023/10/14 09:38:41;;;;;;;1999.90;999.90;;;14.70;99.90;;;;;;5045788;28;20106;-72
2023/10/14 09:41:10;;;;;;;1999.90;999.90;;;14.80;99.90;;;;;;5045336;28;20064;-73
2023/10/14 09:43:39;;;;;;;1999.90;999.90;;;15.00;99.90;;;;;;5047937;28;20049;-73
2023/10/14 09:46:17;;;;;;;1999.90;999.90;;;14.90;99.90;;;;;;5046950;28;20477;-73
2023/10/14 09:48:45;;;;;;;1999.90;999.90;;;14.70;99.90;;;;;;5046805;28;20041;-73
2023/10/14 09:51:15;;;;;;;1999.90;999.90;;;14.40;99.90;;;;;;5038596;28;20041;-73
2023/10/14 09:53:40;;;;;;;1999.90;999.90;;;14.20;99.90;;;;;;5030950;28;20087;-72
2023/10/14 09:56:09;;;;;;;1999.90;999.90;;;14.00;99.90;;;;;;5055278;28;20477;-72
2023/10/14 09:58:41;;;;;;;103.53;98.53;;;14.00;99.90;;;;;;5047490;28;20052;-73
2023/10/14 10:01:09;;;;;;;1999.90;999.90;;;13.90;99.90;;;;;;5047284;28;20033;-72
2023/10/14 10:03:57;;;;;;;1999.90;999.90;;;13.90;99.90;;;;;;5047494;28;20156;-72
2023/10/14 10:06:37;;;;;;;1999.90;999.90;;;13.70;99.90;;;;;;5041762;28;20081;-73
2023/10/14 10:09:09;;;;;;;1999.90;999.90;;;13.50;99.90;;;;;;5047141;28;20045;-73
2023/10/14 10:11:37;;;;;;;1999.90;999.90;;;13.30;99.90;;;;;;5046845;28;20348;-72
2023/10/14 10:14:12;;;;;;;1999.90;999.90;;;13.10;99.90;;;;;;5048691;28;20056;-72
2023/10/14 10:16:40;;;;;;;1999.90;999.90;;;13.30;99.90;;;;;;5046545;28;20075;-73
2023/10/14 10:19:08;;;;;;;1999.90;999.90;;;13.60;99.90;;;;;;5030756;28;20386;-73
2023/10/14 10:21:40;;;;;;;1999.90;999.90;;;13.80;99.90;;;;;;5043869;28;20063;-72
2023/10/14 10:24:34;;;;;;;1999.90;999.90;;;14.10;99.90;;;;;;5013890;28;20401;-72
2023/10/14 10:27:03;;;;;;;1999.90;999.90;;;14.40;99.90;;;;;;5047134;28;20048;-73
2023/10/14 10:29:33;;;;;;;1999.90;999.90;;;14.60;99.90;;;;;;5047340;28;20374;-72
2023/10/14 10:32:09;;;;;;;1999.90;999.90;;;14.80;99.90;;;;;;5038543;28;20040;-71
2023/10/14 10:35:07;;;;;;;89.88;85.60;;;14.90;99.90;;;;;;5047137;28;20033;-72
2023/10/14 10:37:49;;;;;;;1999.90;999.90;;;14.70;99.90;;;;;;5036841;28;20045;-72
2023/10/14 10:40:34;;;;;;;115.35;110.38;;;14.60;99.90;;;;;;5047156;28;20039;-72
2023/10/14 10:43:09;;;;;;;1999.90;999.90;;;14.70;99.90;;;;;;5025053;28;20061;-72
2023/10/14 10:45:40;;;;;;;167.57;160.50;;;14.90;99.90;;;;;;5029861;28;20080;-72
2023/10/14 10:48:09;;;;;;;1100.22;595.95;;;15.00;99.90;;;;;;5030364;28;20041;-73
2023/10/14 10:50:38;;;;;;;1999.90;999.90;;;15.10;99.90;;;;;;5042916;28;20052;-72
2023/10/14 10:53:07;;;;;;;1999.90;999.90;;;15.30;99.90;;;;;;5021175;28;20045;-73
2023/10/14 10:55:37;;;;;;;1999.90;999.90;;;15.60;99.90;;;;;;5033955;28;20568;-73
2023/10/14 10:58:04;;;;;;;243.23;232.70;;;15.90;99.90;;;;;;5049517;28;20052;-72
2023/10/14 11:00:31;;;;;;;224.52;214.82;;;16.10;99.90;;;;;;5033899;28;20139;-72
2023/10/14 11:02:57;;;;;;;256.02;244.88;;;16.00;99.90;;;;;;5052734;28;20051;-73
2023/10/14 11:05:25;;;;;;;244.70;232.75;;;15.90;99.90;;;;;;5049116;28;20440;-72
2023/10/14 11:07:52;;;;;;;369.60;352.25;;;16.10;99.90;;;;;;5050953;28;20128;-73
2023/10/14 11:10:29;;;;;;;282.58;269.83;;;16.20;99.90;;;;;;5051428;28;20053;-73
2023/10/14 11:12:56;;;;;;;242.18;231.50;;;16.20;99.90;;;;;;5040643;28;20103;-72
2023/10/14 11:15:23;;;;;;;219.07;209.00;;;15.70;99.90;;;;;;5064138;28;20033;-73
2023/10/14 11:17:56;;;;;;;161.48;154.23;;;15.20;99.90;;;;;;5039826;28;20087;-73
2023/10/14 11:20:24;;;;;;;245.32;230.73;;;14.90;99.90;;;;;;5027630;28;20045;-73
2023/10/14 11:22:51;;;;;;;197.20;188.38;;;14.50;99.90;;;;;;5045038;28;20045;-73
2023/10/14 11:25:20;;;;;;;285.77;272.90;;;14.30;99.90;;;;;;5030771;28;20481;-73
2023/10/14 11:27:46;;;;;;;340.15;323.70;;;14.20;99.90;;;;;;5030926;28;20132;-72
2023/10/14 11:30:13;;;;;;;294.40;280.95;;;14.10;99.90;;;;;;5043572;28;20595;-72
2023/10/14 11:32:49;;;;;;;337.48;318.73;;;13.90;99.90;;;;;;5041875;28;20557;-73
2023/10/14 11:35:19;;;;;;;233.18;222.80;;;13.70;99.90;;;;;;5054024;28;20125;-72
2023/10/14 11:37:52;;;;;;;1999.90;999.90;;;13.40;99.90;;;;;;5043542;28;20052;-73
2023/10/14 11:40:19;;;;;;;1999.90;999.90;;;13.30;99.90;;;;;;5048328;28;20060;-71
2023/10/14 11:42:46;;;;;;;1999.90;999.90;;;13.10;99.90;;;;;;5037840;28;20106;-72
2023/10/14 11:45:17;;;;;;;1999.90;999.90;;;13.00;99.90;;;;;;5041356;28;20440;-73
2023/10/14 11:47:44;;;;;;;1999.90;999.90;;;13.10;99.90;;;;;;5028680;28;20067;-72
2023/10/14 11:50:13;;;;;;;1999.90;999.90;;;13.40;99.90;;;;;;5042899;28;20044;-73
2023/10/14 11:52:45;;;;;;;1999.90;999.90;;;13.80;99.90;;;;;;5040517;28;20037;-73
2023/10/14 11:55:17;;;;;;;1999.90;999.90;;;14.00;99.90;;;;;;5052487;28;20086;-73
2023/10/14 11:57:47;;;;;;;1574.65;821.33;;;14.30;99.90;;;;;;5047148;28;20040;-72
2023/10/14 12:00:17;;;;;;;1999.90;999.90;;;14.50;99.90;;;;;;5044980;28;20512;-73
2023/10/14 12:02:44;;;;;;;1999.90;999.90;;;14.60;99.90;;;;;;5027791;28;20041;-72
2023/10/14 12:05:10;;;;;;;290.30;277.52;;;14.80;99.90;;;;;;5038016;28;20076;-73
2023/10/14 12:07:36;;;;;;;395.05;375.42;;;14.80;99.90;;;;;;5034409;28;20119;-73
2023/10/14 12:10:08;;;;;;;1999.90;999.90;;;14.90;99.90;;;;;;5040761;28;20041;-73
2023/10/14 12:12:33;;;;;;;217.38;206.82;;;14.80;99.90;;;;;;5041681;28;20395;-73
2023/10/14 12:14:59;;;;;;;195.00;186.07;;;14.50;99.90;;;;;;5048933;28;20033;-74
2023/10/14 12:17:25;;;;;;;277.27;264.58;;;14.30;99.90;;;;;;5055542;28;20493;-73
2023/10/14 12:19:51;;;;;;;162.27;154.93;;;14.00;99.90;;;;;;5045472;28;20048;-73
2023/10/14 12:22:17;;;;;;;232.30;221.95;;;13.70;99.90;;;;;;5035312;28;20045;-74
2023/10/14 12:24:43;;;;;;;190.77;182.55;;;13.70;99.90;;;;;;5050071;28;20053;-73
2023/10/14 12:27:13;;;;;;;177.35;169.55;;;13.60;99.90;;;;;;5026778;28;20037;-72
2023/10/14 12:29:42;;;;;;;189.63;181.18;;;13.60;99.90;;;;;;5021612;28;20607;-73
2023/10/14 12:32:15;;;;;;;224.32;214.63;;;13.60;99.90;;;;;;5042394;28;20114;-73
2023/10/14 12:34:44;;;;;;;159.70;152.60;;;13.70;99.90;;;;;;5022339;28;20446;-73
2023/10/14 12:37:21;;;;;;;129.40;123.47;;;13.80;99.90;;;;;;5057084;28;20499;-73
2023/10/14 12:39:55;;;;;;;155.68;148.57;;;13.70;99.90;;;;;;5020735;28;20119;-73
2023/10/14 12:42:23;;;;;;;;;;;13.80;99.90;;;;;;5041120;28;20078;-73
2023/10/14 12:45:00;;;;;;;1999.90;999.90;;;13.80;99.90;;;;;;5048044;28;19959;-73
2023/10/14 12:47:26;;;;;;;1544.93;792.95;;;13.90;99.90;;;;;;5044600;28;20504;-74
2023/10/14 12:49:51;;;;;;;1999.90;999.90;;;14.00;99.90;;;;;;5040715;28;20045;-73
2023/10/14 12:52:19;;;;;;;1999.90;999.90;;;14.10;99.90;;;;;;5035868;28;20115;-73
2023/10/14 12:54:51;;;;;;;1999.90;999.90;;;14.20;99.90;;;;;;5033093;28;20049;-74
2023/10/14 12:57:21;;;;;;;1999.90;999.90;;;14.20;99.90;;;;;;5044974;28;20041;-73
2023/10/14 12:59:47;;;;;;;1999.90;999.90;;;14.30;99.90;;;;;;5041416;28;20049;-73
2023/10/14 13:02:17;;;;;;;286.20;273.50;;;14.50;99.90;;;;;;5035533;28;20051;-73
2023/10/14 13:04:44;;;;;;;1127.60;622.20;;;14.70;99.90;;;;;;5033102;28;20332;-74
2023/10/14 13:07:10;;;;;;;1999.90;999.90;;;14.60;99.90;;;;;;5048936;28;20041;-73
2023/10/14 13:09:38;;;;;;;266.70;254.93;;;14.30;99.90;;;;;;5045242;28;20397;-74
2023/10/14 13:12:13;;;;;;;1175.40;666.97;;;14.10;99.90;;;;;;5043043;28;20445;-74
2023/10/14 13:14:39;;;;;;;1999.90;999.90;;;13.90;99.90;;;;;;5040471;28;20029;-72
2023/10/14 13:17:07;;;;;;;1999.90;999.90;;;13.70;99.90;;;;;;5049306;28;20086;-73